Time;durP1;ratioP1;P1;durP2;ratioP2;P2;SDS_P1;SDS_P2;PMS_P1;PMS_P2;Temp;Humidity;BMP_temperature;BMP_pressure;BME280_temperature;BME280_humidity;BME280_pressure;Samples;Min_cycle;Max_cycle;Signal;HPM_P1;HPM_P2
2023/11/30 00:02:37;;;;;;;17.27;12.15;;;;;;;;;;10421135;27;20130;-62
2023/11/30 00:07:35;;;;;;;14.23;12.68;;;;;;;;;;10419860;27;20137;-61
2023/11/30 00:12:36;;;;;;;14.65;11.82;;;;;;;;;;10419943;27;20082;-61
2023/11/30 00:17:36;;;;;;;13.23;11.20;;;;;;;;;;10421328;27;20122;-61
2023/11/30 00:22:34;;;;;;;18.20;13.43;;;;;;;;;;10419190;27;20166;-60
2023/11/30 00:27:32;;;;;;;14.95;13.02;;;;;;;;;;10419324;27;20138;-61
2023/11/30 00:32:31;;;;;;;14.52;13.05;;;;;;;;;;10418756;27;20139;-61
2023/11/30 00:37:30;;;;;;;16.73;12.98;;;;;;;;;;10421085;27;20130;-61
2023/11/30 00:42:29;;;;;;;16.48;12.57;;;;;;;;;;10412582;27;20102;-60
2023/11/30 00:47:27;;;;;;;14.88;12.65;;;;;;;;;;10413867;27;20071;-60
2023/11/30 00:52:25;;;;;;;14.10;11.65;;;;;;;;;;10413111;27;20078;-60
2023/11/30 00:57:25;;;;;;;13.48;11.48;;;;;;;;;;10394884;27;20089;-60
2023/11/30 01:02:23;;;;;;;13.80;11.60;;;;;;;;;;10394832;27;20216;-61
2023/11/30 01:07:21;;;;;;;12.75;11.02;;;;;;;;;;10417008;27;20480;-60
2023/11/30 01:12:20;;;;;;;14.73;12.55;;;;;;;;;;10397378;27;20078;-60
2023/11/30 01:17:19;;;;;;;13.70;11.85;;;;;;;;;;10415672;27;20066;-60
2023/11/30 01:22:18;;;;;;;12.93;10.95;;;;;;;;;;10409359;27;20465;-60
2023/11/30 01:27:17;;;;;;;15.70;12.23;;;;;;;;;;10390648;28;20083;-61
2023/11/30 01:32:16;;;;;;;13.25;11.85;;;;;;;;;;10410776;28;20133;-61
2023/11/30 01:37:16;;;;;;;14.00;12.50;;;;;;;;;;10413795;28;20063;-61
2023/11/30 01:42:14;;;;;;;14.60;12.90;;;;;;;;;;10393317;28;20075;-61
2023/11/30 01:47:13;;;;;;;17.77;14.63;;;;;;;;;;10396857;28;20290;-62
2023/11/30 01:52:11;;;;;;;17.20;15.40;;;;;;;;;;10415721;28;20078;-62
2023/11/30 01:57:11;;;;;;;15.73;14.02;;;;;;;;;;10415333;28;20079;-61
2023/11/30 02:02:09;;;;;;;15.05;13.35;;;;;;;;;;10397642;28;20079;-61
2023/11/30 02:07:08;;;;;;;16.85;14.77;;;;;;;;;;10414148;28;20082;-60
2023/11/30 02:12:07;;;;;;;18.65;15.48;;;;;;;;;;10396176;28;20048;-62
2023/11/30 02:17:07;;;;;;;13.68;12.23;;;;;;;;;;10396222;28;20110;-61
2023/11/30 02:22:06;;;;;;;14.98;13.07;;;;;;;;;;10396523;27;20503;-62
2023/11/30 02:27:05;;;;;;;27.17;19.65;;;;;;;;;;10404408;27;20079;-61
2023/11/30 02:32:03;;;;;;;18.60;14.55;;;;;;;;;;10422684;27;20066;-61
2023/11/30 02:37:01;;;;;;;20.08;15.95;;;;;;;;;;10422714;27;20084;-62
2023/11/30 02:42:01;;;;;;;14.57;10.98;;;;;;;;;;10419016;27;20070;-62
2023/11/30 02:46:59;;;;;;;17.48;14.10;;;;;;;;;;10422217;27;20082;-62
2023/11/30 02:51:57;;;;;;;14.00;12.07;;;;;;;;;;10416460;27;20087;-62
2023/11/30 02:56:56;;;;;;;17.00;13.63;;;;;;;;;;10418123;27;20495;-61
2023/11/30 03:01:55;;;;;;;14.52;12.25;;;;;;;;;;10400448;27;20078;-62
2023/11/30 03:06:54;;;;;;;23.77;19.08;;;;;;;;;;10418232;27;20071;-61
2023/11/30 03:11:52;;;;;;;64.45;32.15;;;;;;;;;;10403686;27;20186;-62
2023/11/30 03:16:50;;;;;;;62.10;39.75;;;;;;;;;;10402481;27;20080;-63
2023/11/30 03:21:51;;;;;;;41.28;28.15;;;;;;;;;;10400748;27;20036;-61
2023/11/30 03:26:49;;;;;;;22.58;19.02;;;;;;;;;;10415495;27;20461;-62
2023/11/30 03:31:48;;;;;;;39.08;28.20;;;;;;;;;;10418518;27;20508;-61
2023/11/30 03:36:46;;;;;;;51.67;34.15;;;;;;;;;;10418507;27;20078;-62
2023/11/30 03:41:46;;;;;;;33.75;21.63;;;;;;;;;;10420980;27;20071;-60
2023/11/30 03:46:44;;;;;;;33.05;21.45;;;;;;;;;;10418586;27;20078;-62
2023/11/30 03:51:42;;;;;;;28.77;19.70;;;;;;;;;;10418682;27;20063;-62
2023/11/30 03:56:40;;;;;;;29.45;22.52;;;;;;;;;;10402994;27;20066;-62
2023/11/30 04:01:40;;;;;;;18.23;15.50;;;;;;;;;;10400707;27;20071;-61
2023/11/30 04:06:38;;;;;;;23.77;18.15;;;;;;;;;;10420200;27;20461;-61
2023/11/30 04:11:37;;;;;;;43.40;31.88;;;;;;;;;;10397042;27;20515;-61
2023/11/30 04:16:37;;;;;;;63.42;36.45;;;;;;;;;;10421812;27;20071;-61
2023/11/30 04:21:39;;;;;;;37.25;24.00;;;;;;;;;;10399463;27;20059;-61
2023/11/30 04:26:37;;;;;;;28.85;21.50;;;;;;;;;;10419235;27;20078;-61
2023/11/30 04:31:35;;;;;;;19.83;16.17;;;;;;;;;;10419486;27;20071;-61
2023/11/30 04:36:34;;;;;;;16.75;14.95;;;;;;;;;;10417052;27;20067;-61
2023/11/30 04:41:33;;;;;;;19.33;16.50;;;;;;;;;;10413483;27;20539;-60
2023/11/30 04:46:32;;;;;;;19.00;15.60;;;;;;;;;;10398066;27;20504;-61
2023/11/30 04:51:31;;;;;;;18.15;13.43;;;;;;;;;;10416287;27;20062;-62
2023/11/30 04:56:29;;;;;;;13.63;11.90;;;;;;;;;;10396317;27;20081;-61
2023/11/30 05:01:29;;;;;;;14.43;11.48;;;;;;;;;;10418021;27;20095;-61
2023/11/30 05:06:27;;;;;;;13.18;11.77;;;;;;;;;;10414622;27;20078;-61
2023/11/30 05:11:26;;;;;;;13.43;11.98;;;;;;;;;;10413293;27;20551;-61
2023/11/30 05:16:24;;;;;;;14.52;11.32;;;;;;;;;;10424568;27;20134;-61
2023/11/30 05:21:24;;;;;;;13.43;11.43;;;;;;;;;;10421726;27;20124;-61
2023/11/30 05:26:22;;;;;;;12.93;10.98;;;;;;;;;;10422971;27;20543;-61
2023/11/30 05:31:20;;;;;;;12.68;10.70;;;;;;;;;;10425275;28;20488;-61
2023/11/30 05:36:19;;;;;;;12.00;10.80;;;;;;;;;;10424944;28;20059;-60
2023/11/30 05:41:18;;;;;;;12.27;10.98;;;;;;;;;;10423304;28;20393;-61
2023/11/30 05:46:17;;;;;;;18.85;14.35;;;;;;;;;;10417965;28;20154;-60
2023/11/30 05:51:15;;;;;;;13.70;11.80;;;;;;;;;;10426047;28;20109;-61
2023/11/30 05:56:13;;;;;;;12.02;10.80;;;;;;;;;;10422081;27;20530;-61
2023/11/30 06:01:13;;;;;;;13.10;11.18;;;;;;;;;;10418889;27;20079;-60
2023/11/30 06:06:11;;;;;;;12.43;11.05;;;;;;;;;;10418899;27;20083;-62
2023/11/30 06:11:10;;;;;;;14.15;11.57;;;;;;;;;;10418856;27;20097;-61
2023/11/30 06:16:08;;;;;;;14.05;11.70;;;;;;;;;;10420300;27;20075;-61
2023/11/30 06:21:10;;;;;;;18.25;14.95;;;;;;;;;;10415854;27;20075;-62
2023/11/30 06:26:08;;;;;;;13.23;11.10;;;;;;;;;;10421081;27;20090;-62
2023/11/30 06:31:07;;;;;;;13.20;11.80;;;;;;;;;;10422396;27;20070;-62
2023/11/30 06:36:06;;;;;;;12.32;10.07;;;;;;;;;;10421077;27;20066;-60
2023/11/30 06:41:12;;;;;;;15.27;12.48;;;;;;;;;;10423123;27;20067;-61
2023/11/30 06:46:18;;;;;;;13.93;12.05;;;;;;;;;;10392407;27;20090;-60
2023/11/30 06:51:16;;;;;;;13.18;10.95;;;;;;;;;;10414545;27;20117;-60
2023/11/30 06:56:16;;;;;;;11.30;10.20;;;;;;;;;;10423845;27;20063;-61
2023/11/30 07:01:14;;;;;;;10.57;9.50;;;;;;;;;;10421871;27;20074;-60
2023/11/30 07:06:13;;;;;;;13.32;10.00;;;;;;;;;;10419124;27;20082;-61
2023/11/30 07:11:11;;;;;;;14.57;9.93;;;;;;;;;;10421616;27;20067;-60
2023/11/30 07:16:11;;;;;;;10.50;9.27;;;;;;;;;;10420162;27;20066;-61
2023/11/30 07:21:13;;;;;;;11.30;10.15;;;;;;;;;;10420543;27;20067;-61
2023/11/30 07:26:11;;;;;;;12.73;11.35;;;;;;;;;;10422409;27;20078;-62
2023/11/30 07:31:17;;;;;;;11.40;9.68;;;;;;;;;;10420201;27;20067;-61
2023/11/30 07:36:15;;;;;;;11.90;10.68;;;;;;;;;;10421153;27;20059;-61
2023/11/30 07:41:14;;;;;;;13.80;12.35;;;;;;;;;;10418767;27;20074;-62
2023/11/30 07:46:14;;;;;;;12.25;9.90;;;;;;;;;;10419968;27;20063;-61
2023/11/30 07:51:12;;;;;;;10.82;8.98;;;;;;;;;;10419536;27;20066;-61
2023/11/30 07:56:11;;;;;;;12.68;10.55;;;;;;;;;;10398156;27;20078;-62
2023/11/30 08:01:09;;;;;;;10.70;9.60;;;;;;;;;;10419981;27;20486;-61
2023/11/30 08:06:09;;;;;;;26.33;16.27;;;;;;;;;;10418674;27;20445;-60
2023/11/30 08:11:07;;;;;;;115.43;60.95;;;;;;;;;;10420338;27;20558;-61
2023/11/30 08:16:07;;;;;;;81.20;46.42;;;;;;;;;;10416768;27;20070;-61
2023/11/30 08:21:06;;;;;;;86.88;47.88;;;;;;;;;;10418497;27;20075;-61
2023/11/30 08:26:06;;;;;;;53.65;29.35;;;;;;;;;;10414197;27;20476;-61
2023/11/30 08:31:05;;;;;;;119.20;69.05;;;;;;;;;;10419028;27;20064;-61
2023/11/30 08:36:04;;;;;;;69.60;44.22;;;;;;;;;;10417715;27;20527;-61
2023/11/30 08:41:03;;;;;;;107.07;61.55;;;;;;;;;;10416056;27;20115;-62
2023/11/30 08:46:03;;;;;;;25.90;19.92;;;;;;;;;;10419592;27;20078;-61
2023/11/30 08:51:01;;;;;;;21.52;15.85;;;;;;;;;;10422333;27;20542;-62
2023/11/30 08:56:00;;;;;;;25.45;18.63;;;;;;;;;;10400650;27;20081;-63
2023/11/30 09:00:58;;;;;;;10.68;9.60;;;;;;;;;;10419009;27;20142;-62
2023/11/30 09:05:58;;;;;;;27.02;20.35;;;;;;;;;;10423775;27;20067;-62
2023/11/30 09:10:56;;;;;;;11.23;9.95;;;;;;;;;;10415692;27;20075;-62
2023/11/30 09:15:54;;;;;;;11.80;10.63;;;;;;;;;;10414754;27;20070;-63
2023/11/30 09:20:53;;;;;;;12.50;11.20;;;;;;;;;;10412484;27;20074;-62
2023/11/30 09:25:53;;;;;;;9.38;7.68;;;;;;;;;;10415754;27;20067;-62
2023/11/30 09:30:51;;;;;;;11.18;10.07;;;;;;;;;;10417248;27;20066;-64
2023/11/30 09:35:49;;;;;;;12.52;9.48;;;;;;;;;;10417620;28;20504;-63
2023/11/30 09:40:47;;;;;;;44.13;24.92;;;;;;;;;;10399749;28;20075;-63
2023/11/30 09:45:47;;;;;;;18.15;11.93;;;;;;;;;;10415862;28;20078;-63
2023/11/30 09:50:46;;;;;;;11.02;9.30;;;;;;;;;;10417284;28;20067;-63
2023/11/30 09:55:46;;;;;;;24.13;15.70;;;;;;;;;;10413228;28;20086;-61
2023/11/30 10:00:44;;;;;;;32.17;20.92;;;;;;;;;;10414528;28;20075;-62
2023/11/30 10:05:44;;;;;;;27.80;18.23;;;;;;;;;;10414479;28;20066;-61
2023/11/30 10:10:42;;;;;;;16.73;12.93;;;;;;;;;;10398238;28;20535;-61
2023/11/30 10:15:40;;;;;;;20.05;9.45;;;;;;;;;;10396775;28;20066;-62
2023/11/30 10:20:38;;;;;;;11.13;9.95;;;;;;;;;;10415976;28;20086;-61
2023/11/30 10:25:39;;;;;;;5.22;4.72;;;;;;;;;;10416059;28;20512;-62
2023/11/30 10:30:39;;;;;;;4.40;3.95;;;;;;;;;;10417855;28;20110;-62
2023/11/30 10:35:37;;;;;;;7.60;6.03;;;;;;;;;;10414632;28;20063;-62
2023/11/30 10:40:36;;;;;;;6.75;5.82;;;;;;;;;;10416064;28;20070;-62
2023/11/30 10:45:38;;;;;;;10.50;6.90;;;;;;;;;;10420208;27;20071;-62
2023/11/30 10:50:37;;;;;;;13.30;9.60;;;;;;;;;;10419796;27;20632;-62
2023/11/30 10:55:35;;;;;;;12.27;8.57;;;;;;;;;;10421424;27;20495;-62
2023/11/30 11:00:34;;;;;;;8.55;6.85;;;;;;;;;;10417784;27;20519;-62
2023/11/30 11:05:35;;;;;;;10.85;7.05;;;;;;;;;;10414178;27;20090;-62
2023/11/30 11:10:38;;;;;;;9.65;7.28;;;;;;;;;;10415428;27;20071;-62
2023/11/30 11:15:37;;;;;;;5.97;4.63;;;;;;;;;;10415067;27;20067;-63
2023/11/30 11:20:37;;;;;;;6.28;4.35;;;;;;;;;;10420478;27;20086;-63
2023/11/30 11:25:36;;;;;;;5.70;5.20;;;;;;;;;;10418561;27;20093;-63
2023/11/30 11:30:37;;;;;;;7.18;6.45;;;;;;;;;;10418613;27;20075;-63
2023/11/30 11:35:36;;;;;;;12.13;8.50;;;;;;;;;;10419931;27;20070;-63
2023/11/30 11:40:38;;;;;;;6.55;5.95;;;;;;;;;;10418543;27;20078;-63
2023/11/30 11:45:37;;;;;;;6.32;5.50;;;;;;;;;;10419404;27;20460;-63
2023/11/30 11:50:37;;;;;;;6.03;5.43;;;;;;;;;;10417898;27;20471;-62
2023/11/30 11:55:35;;;;;;;5.50;4.75;;;;;;;;;;10416494;27;20077;-63
2023/11/30 12:00:34;;;;;;;5.90;5.30;;;;;;;;;;10413230;27;20086;-63
2023/11/30 12:05:32;;;;;;;9.13;7.85;;;;;;;;;;10418448;27;20063;-63
2023/11/30 12:10:32;;;;;;;8.48;7.53;;;;;;;;;;10418521;27;20070;-63
2023/11/30 12:15:31;;;;;;;10.63;9.52;;;;;;;;;;10416228;27;20074;-64
2023/11/30 12:20:29;;;;;;;8.18;7.25;;;;;;;;;;10418316;27;20059;-62
2023/11/30 12:25:28;;;;;;;7.57;6.25;;;;;;;;;;10417184;27;20518;-62
2023/11/30 12:30:29;;;;;;;14.32;11.75;;;;;;;;;;10419776;27;20845;-62
2023/11/30 12:35:29;;;;;;;13.98;12.45;;;;;;;;;;10416218;27;20648;-62
2023/11/30 12:40:27;;;;;;;10.90;8.07;;;;;;;;;;10414260;27;20062;-62
2023/11/30 12:45:27;;;;;;;16.20;11.90;;;;;;;;;;10415054;27;20067;-62
2023/11/30 12:50:26;;;;;;;16.80;11.45;;;;;;;;;;10414730;27;20464;-61
2023/11/30 12:55:25;;;;;;;19.20;13.60;;;;;;;;;;10417660;27;20074;-62
2023/11/30 13:00:23;;;;;;;95.88;58.25;;;;;;;;;;10415230;27;20075;-62
2023/11/30 13:05:22;;;;;;;41.00;27.52;;;;;;;;;;10414821;27;20071;-61
2023/11/30 13:10:22;;;;;;;57.75;38.10;;;;;;;;;;10407910;27;20089;-61
2023/11/30 13:15:20;;;;;;;48.25;34.53;;;;;;;;;;10418219;27;20078;-62
2023/11/30 13:20:19;;;;;;;27.50;19.95;;;;;;;;;;10411339;27;20074;-62
2023/11/30 13:25:17;;;;;;;29.02;22.20;;;;;;;;;;10415666;27;20070;-62
2023/11/30 13:30:17;;;;;;;15.20;12.88;;;;;;;;;;10416458;27;20071;-62
2023/11/30 13:35:16;;;;;;;12.70;9.60;;;;;;;;;;10414952;28;20508;-62
2023/11/30 13:40:15;;;;;;;13.85;9.70;;;;;;;;;;10415666;28;20070;-62
2023/11/30 13:45:13;;;;;;;14.48;10.98;;;;;;;;;;10414778;28;20058;-62
2023/11/30 13:50:16;;;;;;;10.52;9.25;;;;;;;;;;10413987;28;20527;-62
2023/11/30 13:55:28;;;;;;;10.77;9.65;;;;;;;;;;10415277;28;20171;-62
2023/11/30 14:00:27;;;;;;;13.75;8.18;;;;;;;;;;10414809;28;20071;-63
2023/11/30 14:05:27;;;;;;;11.73;8.27;;;;;;;;;;10414158;28;20071;-62
2023/11/30 14:10:27;;;;;;;9.18;7.80;;;;;;;;;;10414088;28;20074;-63
2023/11/30 14:15:26;;;;;;;23.30;15.20;;;;;;;;;;10412778;28;20094;-62
2023/11/30 14:20:24;;;;;;;19.58;14.77;;;;;;;;;;10422306;27;20062;-63
2023/11/30 14:25:25;;;;;;;14.32;12.75;;;;;;;;;;10422027;27;20088;-63
2023/11/30 14:30:23;;;;;;;13.68;12.23;;;;;;;;;;10419357;27;20067;-62
2023/11/30 14:35:23;;;;;;;12.68;9.55;;;;;;;;;;10422808;27;20070;-62
2023/11/30 14:40:22;;;;;;;13.30;11.75;;;;;;;;;;10400565;27;20692;-62
2023/11/30 14:45:22;;;;;;;14.85;12.73;;;;;;;;;;10419346;27;20071;-62
2023/11/30 14:50:21;;;;;;;13.63;11.98;;;;;;;;;;10420938;27;20071;-62
2023/11/30 14:55:20;;;;;;;17.27;13.13;;;;;;;;;;10419595;27;20079;-62
2023/11/30 15:00:20;;;;;;;15.73;12.00;;;;;;;;;;10420566;27;20079;-63
2023/11/30 15:05:20;;;;;;;19.95;16.67;;;;;;;;;;10421686;27;20082;-63
2023/11/30 15:10:20;;;;;;;28.90;22.58;;;;;;;;;;10413611;27;20086;-62
2023/11/30 15:15:18;;;;;;;82.65;50.97;;;;;;;;;;10420583;27;20071;-62
2023/11/30 15:20:17;;;;;;;47.05;34.25;;;;;;;;;;10425086;27;20059;-61
2023/11/30 15:25:19;;;;;;;44.08;35.20;;;;;;;;;;10427256;27;20164;-62
2023/11/30 15:30:18;;;;;;;51.08;45.25;;;;;;;;;;10418586;27;20178;-62
2023/11/30 15:35:16;;;;;;;30.90;26.40;;;;;;;;;;10419981;27;20119;-62
2023/11/30 15:40:16;;;;;;;24.98;17.90;;;;;;;;;;10431428;27;20074;-62
2023/11/30 15:45:17;;;;;;;20.80;17.75;;;;;;;;;;10419876;27;20142;-62
2023/11/30 15:50:16;;;;;;;23.67;19.85;;;;;;;;;;10414374;27;20225;-61
2023/11/30 15:55:14;;;;;;;23.95;20.83;;;;;;;;;;10427419;27;20066;-62
2023/11/30 16:00:13;;;;;;;19.33;16.63;;;;;;;;;;10426639;27;20078;-62
2023/11/30 16:05:14;;;;;;;21.00;15.43;;;;;;;;;;10416912;27;20130;-62
2023/11/30 16:10:12;;;;;;;17.88;14.25;;;;;;;;;;10418799;27;20138;-62
2023/11/30 16:15:11;;;;;;;19.67;16.42;;;;;;;;;;10413679;27;20086;-63
2023/11/30 16:20:10;;;;;;;20.13;17.38;;;;;;;;;;10411785;27;20070;-62
2023/11/30 16:25:12;;;;;;;19.88;17.05;;;;;;;;;;10411916;27;20480;-63
2023/11/30 16:30:11;;;;;;;25.67;20.45;;;;;;;;;;10415622;27;20074;-64
2023/11/30 16:35:09;;;;;;;26.67;21.92;;;;;;;;;;10416290;27;20527;-63
2023/11/30 16:40:12;;;;;;;23.13;20.23;;;;;;;;;;10417668;27;20130;-63
2023/11/30 16:45:11;;;;;;;22.52;18.67;;;;;;;;;;10415727;27;20085;-63
2023/11/30 16:50:14;;;;;;;19.42;16.63;;;;;;;;;;10417633;27;20066;-63
2023/11/30 16:55:14;;;;;;;39.65;30.15;;;;;;;;;;10417344;27;20456;-63
2023/11/30 17:00:13;;;;;;;28.30;23.75;;;;;;;;;;10416909;27;20159;-62
2023/11/30 17:05:12;;;;;;;26.83;23.30;;;;;;;;;;10417907;27;20071;-64
2023/11/30 17:10:10;;;;;;;30.42;23.50;;;;;;;;;;10415494;27;20493;-61
2023/11/30 17:15:10;;;;;;;24.08;19.55;;;;;;;;;;10415903;27;20503;-61
2023/11/30 17:20:09;;;;;;;23.30;20.80;;;;;;;;;;10416098;27;20114;-61
2023/11/30 17:25:08;;;;;;;33.17;26.55;;;;;;;;;;10410197;27;20071;-62
2023/11/30 17:30:06;;;;;;;34.50;27.05;;;;;;;;;;10410572;27;20488;-62
2023/11/30 17:35:06;;;;;;;31.98;26.95;;;;;;;;;;10410757;28;20496;-61
2023/11/30 17:40:05;;;;;;;44.15;39.35;;;;;;;;;;10416396;28;20080;-62
2023/11/30 17:45:04;;;;;;;47.67;35.60;;;;;;;;;;10397101;28;20476;-61
2023/11/30 17:50:03;;;;;;;44.22;33.83;;;;;;;;;;10414153;28;20115;-63
2023/11/30 17:55:03;;;;;;;37.60;28.52;;;;;;;;;;10421069;27;20095;-61
2023/11/30 18:00:04;;;;;;;31.15;26.75;;;;;;;;;;10424266;27;20079;-62
2023/11/30 18:05:09;;;;;;;37.78;27.58;;;;;;;;;;10432950;27;20077;-63
2023/11/30 18:10:09;;;;;;;44.80;29.98;;;;;;;;;;10421657;27;20085;-63
2023/11/30 18:15:08;;;;;;;68.55;47.65;;;;;;;;;;10419207;27;20044;-63
2023/11/30 18:20:07;;;;;;;153.38;116.18;;;;;;;;;;10417452;27;20075;-63
2023/11/30 18:25:05;;;;;;;110.82;83.22;;;;;;;;;;10422876;27;20539;-62
2023/11/30 18:30:06;;;;;;;104.97;79.18;;;;;;;;;;10421913;27;20067;-61
2023/11/30 18:35:05;;;;;;;77.07;59.25;;;;;;;;;;10421773;27;20075;-62
2023/11/30 18:40:03;;;;;;;87.25;64.88;;;;;;;;;;10420777;27;20086;-61
2023/11/30 18:45:01;;;;;;;86.30;60.38;;;;;;;;;;10420865;27;20085;-62
2023/11/30 18:50:01;;;;;;;63.45;46.60;;;;;;;;;;10421643;27;20066;-62
2023/11/30 18:54:59;;;;;;;52.30;40.53;;;;;;;;;;10421679;27;20448;-62
2023/11/30 19:00:00;;;;;;;48.47;35.15;;;;;;;;;;10420663;27;20363;-62
2023/11/30 19:04:58;;;;;;;78.68;55.83;;;;;;;;;;10422796;27;20078;-62
2023/11/30 19:10:00;;;;;;;59.00;40.92;;;;;;;;;;10430679;27;20090;-62
2023/11/30 19:14:58;;;;;;;37.17;27.70;;;;;;;;;;10428004;27;20071;-62
2023/11/30 19:19:56;;;;;;;84.38;68.78;;;;;;;;;;10431726;27;20067;-62
2023/11/30 19:24:55;;;;;;;68.75;51.50;;;;;;;;;;10426567;27;20059;-62
2023/11/30 19:29:54;;;;;;;57.60;46.80;;;;;;;;;;10426554;27;20073;-61
2023/11/30 19:34:53;;;;;;;55.92;44.15;;;;;;;;;;10427317;27;20538;-63
2023/11/30 19:39:51;;;;;;;61.25;51.38;;;;;;;;;;10418773;27;20142;-63
2023/11/30 19:44:50;;;;;;;53.22;37.58;;;;;;;;;;10415290;27;20123;-62
2023/11/30 19:49:49;;;;;;;67.85;46.88;;;;;;;;;;10414730;27;20139;-62
2023/11/30 19:54:47;;;;;;;88.13;60.47;;;;;;;;;;10415134;27;20117;-62
2023/11/30 19:59:46;;;;;;;97.60;70.03;;;;;;;;;;10413900;27;20174;-62
2023/11/30 20:04:44;;;;;;;55.40;46.22;;;;;;;;;;10399502;27;20207;-62
2023/11/30 20:09:44;;;;;;;47.08;39.22;;;;;;;;;;10418856;27;20484;-62
2023/11/30 20:14:42;;;;;;;33.05;23.75;;;;;;;;;;10412321;27;20486;-62
2023/11/30 20:19:40;;;;;;;13.40;10.57;;;;;;;;;;10412404;27;20127;-62
2023/11/30 20:24:39;;;;;;;14.68;10.85;;;;;;;;;;10414711;27;20121;-62
2023/11/30 20:29:38;;;;;;;10.48;8.32;;;;;;;;;;10413994;27;20555;-62
2023/11/30 20:34:38;;;;;;;15.23;9.68;;;;;;;;;;10394693;27;20598;-62
2023/11/30 20:39:36;;;;;;;12.75;10.10;;;;;;;;;;10412736;27;20189;-62
2023/11/30 20:44:34;;;;;;;12.25;10.55;;;;;;;;;;10412075;27;20117;-62
2023/11/30 20:49:34;;;;;;;6.65;5.95;;;;;;;;;;10412010;27;20562;-62
2023/11/30 20:54:33;;;;;;;6.63;5.90;;;;;;;;;;10415846;27;20138;-62
2023/11/30 20:59:32;;;;;;;8.90;6.95;;;;;;;;;;10417269;27;20074;-63
2023/11/30 21:04:31;;;;;;;9.20;7.07;;;;;;;;;;10412842;27;20074;-63
2023/11/30 21:09:32;;;;;;;7.80;7.03;;;;;;;;;;10413429;27;20124;-62
2023/11/30 21:14:30;;;;;;;35.47;22.77;;;;;;;;;;10413933;27;20101;-61
2023/11/30 21:19:28;;;;;;;6.53;5.65;;;;;;;;;;10417475;27;20071;-61
2023/11/30 21:24:27;;;;;;;9.85;8.50;;;;;;;;;;10416672;27;20069;-62
2023/11/30 21:29:27;;;;;;;7.93;7.13;;;;;;;;;;10412379;27;20071;-61
2023/11/30 21:34:25;;;;;;;49.72;34.95;;;;;;;;;;10419347;27;20103;-61
2023/11/30 21:39:25;;;;;;;13.43;10.85;;;;;;;;;;10395605;28;20074;-61
2023/11/30 21:44:24;;;;;;;20.35;13.57;;;;;;;;;;10414404;28;20074;-63
2023/11/30 21:49:23;;;;;;;9.55;8.55;;;;;;;;;;10414797;28;20078;-59
2023/11/30 21:54:22;;;;;;;23.15;17.98;;;;;;;;;;10411864;28;20062;-61
2023/11/30 21:59:20;;;;;;;21.13;16.25;;;;;;;;;;10416477;28;20079;-61
2023/11/30 22:04:18;;;;;;;18.55;14.07;;;;;;;;;;10416590;28;20487;-62
2023/11/30 22:09:18;;;;;;;21.15;13.93;;;;;;;;;;10417128;28;20067;-61
2023/11/30 22:14:16;;;;;;;16.00;13.38;;;;;;;;;;10415593;28;20075;-61
2023/11/30 22:19:14;;;;;;;13.98;12.45;;;;;;;;;;10412701;28;20067;-62
2023/11/30 22:24:14;;;;;;;32.45;23.45;;;;;;;;;;10414550;28;20075;-61
2023/11/30 22:29:15;;;;;;;33.28;23.10;;;;;;;;;;10416272;28;20468;-61
2023/11/30 22:34:13;;;;;;;32.00;23.13;;;;;;;;;;10413812;28;20078;-61
2023/11/30 22:39:11;;;;;;;23.27;18.38;;;;;;;;;;10416586;27;20059;-62
2023/11/30 22:44:10;;;;;;;22.42;17.13;;;;;;;;;;10421257;27;20083;-61
2023/11/30 22:49:09;;;;;;;16.05;14.13;;;;;;;;;;10418496;27;20071;-61
2023/11/30 22:54:08;;;;;;;17.17;13.05;;;;;;;;;;10421736;27;20087;-62
2023/11/30 22:59:07;;;;;;;10.98;9.57;;;;;;;;;;10421741;27;20834;-62
2023/11/30 23:04:05;;;;;;;14.10;10.02;;;;;;;;;;10420811;27;20078;-62
2023/11/30 23:09:05;;;;;;;13.80;8.60;;;;;;;;;;10421894;27;20070;-62
2023/11/30 23:14:04;;;;;;;12.82;10.70;;;;;;;;;;10419752;27;20102;-62
2023/11/30 23:19:02;;;;;;;12.95;11.20;;;;;;;;;;10422056;27;20464;-62
2023/11/30 23:24:01;;;;;;;11.95;10.15;;;;;;;;;;10419178;27;20082;-62
2023/11/30 23:29:01;;;;;;;18.85;13.07;;;;;;;;;;10420341;27;20071;-61
2023/11/30 23:33:59;;;;;;;30.50;22.27;;;;;;;;;;10419098;27;20083;-62
2023/11/30 23:38:58;;;;;;;17.98;14.32;;;;;;;;;;10417759;27;20542;-62
2023/11/30 23:43:57;;;;;;;19.95;15.15;;;;;;;;;;10420063;27;20078;-61
2023/11/30 23:48:58;;;;;;;12.77;10.18;;;;;;;;;;10417304;27;20081;-62
2023/11/30 23:53:56;;;;;;;12.77;10.18;;;;;;;;;;10418034;27;20073;-62
2023/11/30 23:58:55;;;;;;;15.43;10.43;;;;;;;;;;10418701;27;20079;-62
